Time;durP1;ratioP1;P1;durP2;ratioP2;P2;SDS_P1;SDS_P2;PMS_P1;PMS_P2;Temp;Humidity;BMP_temperature;BMP_pressure;BME280_temperature;BME280_humidity;BME280_pressure;Samples;Min_cycle;Max_cycle;Signal;HPM_P1;HPM_P2
2022/04/12 00:01:47;;;;;;;6.50;4.28;;;;;;;-145.45;100.00;62759.84;5309449;28;20036;-75
2022/04/12 00:04:18;;;;;;;6.03;3.70;;;;;;;-145.45;100.00;62759.84;5292634;28;20396;-75
2022/04/12 00:06:50;;;;;;;6.88;4.30;;;;;;;-145.45;100.00;62759.84;5290532;28;20488;-75
2022/04/12 00:09:21;;;;;;;4.72;3.60;;;;;;;-145.45;100.00;62759.84;5310400;28;20499;-75
2022/04/12 00:11:52;;;;;;;7.82;4.05;;;;;;;-145.45;100.00;62759.84;5312813;28;20366;-75
2022/04/12 00:14:23;;;;;;;5.68;3.90;;;;;;;-145.45;100.00;62759.84;5307480;28;20512;-75
2022/04/12 00:19:02;;;;;;;5.55;4.10;;;;;;;-145.45;100.00;62759.84;5313699;28;20419;-75
2022/04/12 00:19:46;;;;;;;6.38;3.78;;;;;;;-145.45;100.00;62759.84;5311480;28;20028;-75
2022/04/12 00:22:18;;;;;;;7.38;3.60;;;;;;;-145.45;100.00;62759.84;5311161;28;20530;-75
2022/04/12 00:24:49;;;;;;;6.43;3.90;;;;;;;-145.45;100.00;62759.84;5310840;28;20447;-75
2022/04/12 00:27:20;;;;;;;7.18;3.80;;;;;;;-145.45;100.00;62759.84;5310360;28;20479;-75
2022/04/12 00:29:52;;;;;;;8.52;3.83;;;;;;;-145.45;100.00;62759.84;5306111;28;20021;-75
2022/04/12 00:32:23;;;;;;;7.50;3.60;;;;;;;-145.45;100.00;62759.84;5308707;28;20678;-75
2022/04/12 00:34:54;;;;;;;8.77;3.83;;;;;;;-145.45;100.00;62759.84;5292172;28;20032;-76
2022/04/12 00:37:26;;;;;;;7.40;3.72;;;;;;;-145.45;100.00;62759.84;5308216;28;20063;-75
2022/04/12 00:39:57;;;;;;;10.32;3.75;;;;;;;-145.45;100.00;62759.84;5309650;28;20016;-75
2022/04/12 00:42:29;;;;;;;5.78;3.78;;;;;;;-145.45;100.00;62759.84;5309182;28;20035;-75
2022/04/12 00:45:01;;;;;;;6.75;3.28;;;;;;;-145.45;100.00;62759.84;5312002;28;20133;-76
2022/04/12 00:47:32;;;;;;;7.53;3.67;;;;;;;-145.45;100.00;62759.84;5310011;28;20052;-76
2022/04/12 00:50:04;;;;;;;7.15;3.63;;;;;;;-145.45;100.00;62759.84;5307901;28;20037;-76
2022/04/12 00:52:38;;;;;;;6.90;4.57;;;;;;;-145.45;100.00;62759.84;5313136;28;20036;-76
2022/04/12 00:55:10;;;;;;;5.50;3.40;;;;;;;-145.45;100.00;62759.84;5309092;28;20068;-76
2022/04/12 00:57:42;;;;;;;4.68;3.40;;;;;;;-145.45;100.00;62759.84;5309939;28;20033;-76
2022/04/12 01:00:16;;;;;;;6.03;3.25;;;;;;;-145.45;100.00;62759.84;5310480;28;20032;-76
2022/04/12 01:02:47;;;;;;;6.55;3.70;;;;;;;-145.45;100.00;62759.84;5309615;28;20408;-75
2022/04/12 01:05:18;;;;;;;6.03;3.50;;;;;;;-145.45;100.00;62759.84;5311483;27;20020;-76
2022/04/12 01:07:50;;;;;;;8.57;3.92;;;;;;;-145.45;100.00;62759.84;5313506;28;20028;-76
2022/04/12 01:10:23;;;;;;;5.43;3.30;;;;;;;-145.45;100.00;62759.84;5295386;28;20446;-75
2022/04/12 01:12:54;;;;;;;5.05;3.38;;;;;;;-145.45;100.00;62759.84;5294251;28;20028;-76
2022/04/12 01:15:26;;;;;;;8.50;3.90;;;;;;;-145.45;100.00;62759.84;5312611;28;20028;-76
2022/04/12 01:17:57;;;;;;;8.05;3.72;;;;;;;-145.45;100.00;62759.84;5312213;28;20114;-76
2022/04/12 01:20:31;;;;;;;6.30;3.63;;;;;;;-145.45;100.00;62759.84;5315389;28;20028;-75
2022/04/12 01:23:30;;;;;;;5.22;3.58;;;;;;;-145.45;100.00;62759.84;5314274;28;20032;-75
2022/04/12 01:26:02;;;;;;;7.53;3.72;;;;;;;-145.45;100.00;62759.84;5294636;28;20457;-75
2022/04/12 01:28:33;;;;;;;8.93;3.90;;;;;;;-145.45;100.00;62759.84;5292745;28;20013;-75
2022/04/12 01:31:05;;;;;;;4.65;3.45;;;;;;;-145.45;100.00;62759.84;5303798;28;20032;-75
2022/04/12 01:33:36;;;;;;;6.70;3.83;;;;;;;-145.45;100.00;62759.84;5304385;28;20036;-75
2022/04/12 01:36:07;;;;;;;5.07;3.55;;;;;;;-145.45;100.00;62759.84;5303730;28;20103;-75
2022/04/12 01:38:39;;;;;;;11.15;3.88;;;;;;;-145.45;100.00;62759.84;5304347;28;20103;-76
2022/04/12 01:41:10;;;;;;;8.43;3.50;;;;;;;-145.45;100.00;62759.84;5306812;28;20481;-75
2022/04/12 01:43:41;;;;;;;5.15;3.72;;;;;;;-145.45;100.00;62759.84;5315830;28;20062;-75
2022/04/12 01:46:13;;;;;;;9.32;3.72;;;;;;;-145.45;100.00;62759.84;5293534;28;20090;-76
2022/04/12 01:48:45;;;;;;;4.47;3.45;;;;;;;-145.45;100.00;62759.84;5311281;28;20476;-75
2022/04/12 01:51:16;;;;;;;5.47;3.28;;;;;;;-145.45;100.00;62759.84;5308251;28;20030;-75
2022/04/12 01:53:47;;;;;;;5.53;3.78;;;;;;;-145.45;100.00;62759.84;5316650;28;20509;-75
2022/04/12 01:56:19;;;;;;;6.05;4.10;;;;;;;-145.45;100.00;62759.84;5311582;28;20363;-76
2022/04/12 01:58:50;;;;;;;6.47;3.42;;;;;;;-145.45;100.00;62759.84;5313620;28;20059;-76
2022/04/12 02:01:21;;;;;;;6.53;3.88;;;;;;;-145.45;100.00;62759.84;5310384;28;20024;-76
2022/04/12 02:03:53;;;;;;;8.45;3.75;;;;;;;-145.45;100.00;62759.84;5312070;28;42540;-75
2022/04/12 02:06:24;;;;;;;5.95;3.55;;;;;;;-145.45;100.00;62759.84;5315782;28;20024;-76
2022/04/12 02:08:55;;;;;;;5.97;3.97;;;;;;;-145.45;100.00;62759.84;5315763;28;20420;-75
2022/04/12 02:11:27;;;;;;;7.10;3.72;;;;;;;-145.45;100.00;62759.84;5311607;28;20386;-76
2022/04/12 02:13:58;;;;;;;7.15;4.00;;;;;;;-145.45;100.00;62759.84;5310173;28;20055;-76
2022/04/12 02:16:29;;;;;;;5.68;4.05;;;;;;;-145.45;100.00;62759.84;5295164;28;20032;-74
2022/04/12 02:19:00;;;;;;;7.38;3.95;;;;;;;-145.45;100.00;62759.84;5314290;28;20021;-75
2022/04/12 02:21:32;;;;;;;6.85;3.85;;;;;;;-145.45;100.00;62759.84;5307432;28;20123;-76
2022/04/12 02:24:03;;;;;;;8.32;3.70;;;;;;;-145.45;100.00;62759.84;5313536;28;20028;-76
2022/04/12 02:26:35;;;;;;;5.00;3.60;;;;;;;-145.45;100.00;62759.84;5313789;28;20025;-76
2022/04/12 02:29:07;;;;;;;7.90;3.70;;;;;;;-145.45;100.00;62759.84;5311626;28;20070;-76
2022/04/12 02:31:41;;;;;;;6.68;3.55;;;;;;;-145.45;100.00;62759.84;5309380;28;20032;-75
2022/04/12 02:34:12;;;;;;;5.90;3.55;;;;;;;-145.45;100.00;62759.84;5312642;28;20040;-76
2022/04/12 02:36:43;;;;;;;9.90;3.90;;;;;;;-145.45;100.00;62759.84;5313967;28;20032;-75
2022/04/12 02:39:15;;;;;;;5.35;3.75;;;;;;;-145.45;100.00;62759.84;5316185;28;20025;-76
2022/04/12 02:41:46;;;;;;;5.45;3.72;;;;;;;-145.45;100.00;62759.84;5311302;28;20063;-76
2022/04/12 02:44:17;;;;;;;4.75;3.33;;;;;;;-145.45;100.00;62759.84;5294733;28;20024;-75
2022/04/12 02:46:49;;;;;;;6.10;3.97;;;;;;;-145.45;100.00;62759.84;5311009;28;20025;-75
2022/04/12 02:49:20;;;;;;;11.77;3.97;;;;;;;-145.45;100.00;62759.84;5311642;28;20020;-76
2022/04/12 02:51:51;;;;;;;10.02;3.83;;;;;;;-145.45;100.00;62759.84;5311776;28;20028;-75
2022/04/12 02:54:23;;;;;;;8.15;3.72;;;;;;;-145.45;100.00;62759.84;5310559;28;20040;-75
2022/04/12 02:56:54;;;;;;;6.00;3.70;;;;;;;-145.45;100.00;62759.84;5308344;28;20432;-75
2022/04/12 02:59:25;;;;;;;6.50;3.95;;;;;;;-145.45;100.00;62759.84;5301812;28;20067;-76
2022/04/12 03:01:56;;;;;;;6.35;3.85;;;;;;;-145.45;100.00;62759.84;5285986;28;20038;-76
2022/04/12 03:04:28;;;;;;;9.73;4.00;;;;;;;-145.45;100.00;62759.84;5307632;28;20538;-76
2022/04/12 03:06:59;;;;;;;7.05;3.92;;;;;;;-145.45;100.00;62759.84;5310500;28;20119;-76
2022/04/12 03:09:31;;;;;;;4.72;3.33;;;;;;;-145.45;100.00;62759.84;5303343;28;20111;-76
2022/04/12 03:12:02;;;;;;;6.63;3.20;;;;;;;-145.45;100.00;62759.84;5286406;28;20044;-76
2022/04/12 03:14:34;;;;;;;11.27;4.15;;;;;;;-145.45;100.00;62759.84;5303289;28;20123;-76
2022/04/12 03:17:05;;;;;;;4.88;3.72;;;;;;;-145.45;100.00;62759.84;5309362;28;20035;-76
2022/04/12 03:19:37;;;;;;;7.40;4.32;;;;;;;-145.45;100.00;62759.84;5310676;28;20024;-76
2022/04/12 03:22:08;;;;;;;7.00;4.05;;;;;;;-145.45;100.00;62759.84;5304594;28;20020;-76
2022/04/12 03:24:39;;;;;;;8.52;4.10;;;;;;;-145.45;100.00;62759.84;5310677;28;43859;-76
2022/04/12 03:27:11;;;;;;;7.15;4.63;;;;;;;-145.45;100.00;62759.84;5304081;28;20025;-76
2022/04/12 03:29:42;;;;;;;9.80;5.22;;;;;;;-145.45;100.00;62759.84;5308027;28;20024;-75
2022/04/12 03:32:13;;;;;;;6.35;4.10;;;;;;;-145.45;100.00;62759.84;5305963;28;20421;-76
2022/04/12 03:34:46;;;;;;;7.03;4.38;;;;;;;-145.45;100.00;62759.84;5311602;28;20558;-75
2022/04/12 03:37:18;;;;;;;6.03;3.88;;;;;;;-145.45;100.00;62759.84;5296903;28;20020;-71
2022/04/12 03:39:51;;;;;;;9.25;4.50;;;;;;;-145.45;100.00;62759.84;5314592;28;20035;-72
2022/04/12 03:42:23;;;;;;;5.05;3.78;;;;;;;-145.45;100.00;62759.84;5312455;28;20028;-75
2022/04/12 03:44:54;;;;;;;7.72;4.00;;;;;;;-145.45;100.00;62759.84;5310197;28;20032;-75
2022/04/12 03:47:25;;;;;;;8.57;4.50;;;;;;;-145.45;100.00;62759.84;5310764;28;20478;-75
2022/04/12 03:49:57;;;;;;;9.10;4.90;;;;;;;-145.45;100.00;62759.84;5302302;28;20060;-75
2022/04/12 03:52:28;;;;;;;5.50;4.00;;;;;;;-145.45;100.00;62759.84;5284318;28;20969;-75
2022/04/12 03:55:00;;;;;;;6.10;4.53;;;;;;;-145.45;100.00;62759.84;5301826;28;20025;-75
2022/04/12 03:57:32;;;;;;;7.38;4.55;;;;;;;-145.45;100.00;62759.84;5302303;28;20028;-75
2022/04/12 04:00:08;;;;;;;6.47;4.20;;;;;;;-145.45;100.00;62759.84;5307726;28;20027;-75
2022/04/12 04:02:39;;;;;;;7.18;4.00;;;;;;;-145.45;100.00;62759.84;5311112;28;20076;-75
2022/04/12 04:05:11;;;;;;;8.05;4.28;;;;;;;-145.45;100.00;62759.84;5295049;28;20024;-74
2022/04/12 04:07:42;;;;;;;8.70;4.35;;;;;;;-145.45;100.00;62759.84;5313817;28;20016;-74
2022/04/12 04:10:13;;;;;;;7.05;4.88;;;;;;;-145.45;100.00;62759.84;5313416;28;20024;-74
2022/04/12 04:12:45;;;;;;;8.30;4.28;;;;;;;-145.45;100.00;62759.84;5312350;28;20036;-74
2022/04/12 04:15:16;;;;;;;4.90;3.65;;;;;;;-145.45;100.00;62759.84;5311689;28;20085;-75
2022/04/12 04:17:48;;;;;;;8.73;4.85;;;;;;;-145.45;100.00;62759.84;5309485;28;20021;-75
2022/04/12 04:20:19;;;;;;;7.07;4.32;;;;;;;-145.45;100.00;62759.84;5315165;28;20017;-75
2022/04/12 04:22:50;;;;;;;7.85;4.65;;;;;;;-145.45;100.00;62759.84;5313486;28;20020;-75
2022/04/12 04:25:22;;;;;;;6.57;4.85;;;;;;;-145.45;100.00;62759.84;5294114;28;20056;-75
2022/04/12 04:27:53;;;;;;;6.38;4.25;;;;;;;-145.45;100.00;62759.84;5286293;28;20047;-75
2022/04/12 04:30:24;;;;;;;7.47;4.05;;;;;;;-145.45;100.00;62759.84;5303356;28;20104;-75
2022/04/12 04:32:56;;;;;;;7.95;5.07;;;;;;;-145.45;100.00;62759.84;5306970;28;20028;-74
2022/04/12 04:35:27;;;;;;;6.95;4.55;;;;;;;-145.45;100.00;62759.84;5307393;28;20044;-75
2022/04/12 04:37:58;;;;;;;7.53;4.47;;;;;;;-145.45;100.00;62759.84;5283391;28;20033;-75
2022/04/12 04:40:29;;;;;;;8.20;4.95;;;;;;;-145.45;100.00;62759.84;5287020;28;20082;-75
2022/04/12 04:43:02;;;;;;;6.78;4.50;;;;;;;-145.45;100.00;62759.84;5296014;28;20032;-75
2022/04/12 04:45:34;;;;;;;7.82;4.45;;;;;;;-145.45;100.00;62759.84;5314570;28;20029;-76
2022/04/12 04:48:06;;;;;;;8.23;4.38;;;;;;;-145.45;100.00;62759.84;5315161;28;20044;-75
2022/04/12 04:50:37;;;;;;;11.70;5.00;;;;;;;-145.45;100.00;62759.84;5313859;28;20028;-76
2022/04/12 04:53:11;;;;;;;8.52;5.20;;;;;;;-145.45;100.00;62759.84;5317687;28;20128;-76
2022/04/12 04:55:42;;;;;;;6.82;5.40;;;;;;;-145.45;100.00;62759.84;5310243;28;20040;-76
2022/04/12 04:58:14;;;;;;;8.65;4.75;;;;;;;-145.45;100.00;62759.84;5315193;28;20451;-76
2022/04/12 05:00:45;;;;;;;6.22;5.05;;;;;;;-145.45;100.00;62759.84;5306635;28;20458;-76
2022/04/12 05:03:17;;;;;;;14.35;5.68;;;;;;;-145.45;100.00;62759.84;5299060;28;20032;-76
2022/04/12 05:05:48;;;;;;;8.55;5.70;;;;;;;-145.45;100.00;62759.84;5315411;28;20250;-76
2022/04/12 05:08:20;;;;;;;6.88;4.95;;;;;;;-145.45;100.00;62759.84;5296741;28;20094;-76
2022/04/12 05:10:51;;;;;;;8.68;5.60;;;;;;;-145.45;100.00;62759.84;5314355;28;20025;-75
2022/04/12 05:13:22;;;;;;;8.88;5.45;;;;;;;-145.45;100.00;62759.84;5308283;28;20581;-75
2022/04/12 05:15:54;;;;;;;11.00;5.13;;;;;;;-145.45;100.00;62759.84;5302956;28;20028;-75
2022/04/12 05:18:25;;;;;;;7.55;5.07;;;;;;;-145.45;100.00;62759.84;5287283;28;20477;-74
2022/04/12 05:20:57;;;;;;;10.00;5.28;;;;;;;-145.45;100.00;62759.84;5304183;28;20064;-75
2022/04/12 05:23:28;;;;;;;12.63;4.97;;;;;;;-145.45;100.00;62759.84;5282827;28;20025;-75
2022/04/12 05:26:00;;;;;;;6.65;5.10;;;;;;;-145.45;100.00;62759.84;5309990;28;20029;-75
2022/04/12 05:28:31;;;;;;;7.65;4.38;;;;;;;-145.45;100.00;62759.84;5316207;28;20064;-75
2022/04/12 05:31:02;;;;;;;8.50;5.03;;;;;;;-145.45;100.00;62759.84;5312261;28;20447;-75
2022/04/12 05:33:34;;;;;;;10.45;5.53;;;;;;;-145.45;100.00;62759.84;5309666;28;20421;-75
2022/04/12 05:36:06;;;;;;;8.18;5.22;;;;;;;-145.45;100.00;62759.84;5293077;28;20269;-75
2022/04/12 05:38:37;;;;;;;9.35;5.40;;;;;;;-145.45;100.00;62759.84;5310852;28;20104;-75
2022/04/12 05:41:08;;;;;;;9.00;5.47;;;;;;;-145.45;100.00;62759.84;5315565;28;20478;-75
2022/04/12 05:43:40;;;;;;;7.65;4.93;;;;;;;-145.45;100.00;62759.84;5312537;28;20427;-76
2022/04/12 05:46:11;;;;;;;7.95;5.18;;;;;;;-145.45;100.00;62759.84;5309737;28;20496;-75
2022/04/12 05:48:42;;;;;;;9.07;5.38;;;;;;;-145.45;100.00;62759.84;5310955;28;20024;-75
2022/04/12 05:51:14;;;;;;;8.40;5.05;;;;;;;-145.45;100.00;62759.84;5297422;28;20037;-74
2022/04/12 05:53:45;;;;;;;8.32;5.57;;;;;;;-145.45;100.00;62759.84;5312618;28;20028;-74
2022/04/12 05:56:17;;;;;;;9.57;5.93;;;;;;;-145.45;100.00;62759.84;5301320;28;20119;-75
2022/04/12 05:58:48;;;;;;;8.70;5.15;;;;;;;-145.45;100.00;62759.84;5282073;28;20021;-75
2022/04/12 06:01:20;;;;;;;7.57;5.03;;;;;;;-145.45;100.00;62759.84;5287007;28;20033;-75
2022/04/12 06:03:51;;;;;;;10.80;5.10;;;;;;;-145.45;100.00;62759.84;5285530;28;20089;-75
2022/04/12 06:06:22;;;;;;;9.75;5.78;;;;;;;-145.45;100.00;62759.84;5304611;28;20040;-75
2022/04/12 06:08:54;;;;;;;8.10;5.72;;;;;;;-145.45;100.00;62759.84;5304052;28;20035;-75
2022/04/12 06:11:26;;;;;;;11.02;6.13;;;;;;;-145.45;100.00;62759.84;5293827;28;20024;-75
2022/04/12 06:13:58;;;;;;;8.98;5.75;;;;;;;-145.45;100.00;62759.84;5313066;28;20099;-75
2022/04/12 06:16:29;;;;;;;9.13;5.68;;;;;;;-145.45;100.00;62759.84;5312867;28;20845;-75
2022/04/12 06:19:01;;;;;;;8.38;5.32;;;;;;;-145.45;100.00;62759.84;5314808;28;20119;-75
2022/04/12 06:21:32;;;;;;;9.55;5.53;;;;;;;-145.45;100.00;62759.84;5313955;28;20043;-75
2022/04/12 06:24:04;;;;;;;11.27;5.57;;;;;;;-145.45;100.00;62759.84;5316186;28;20024;-75
2022/04/12 06:26:36;;;;;;;8.75;5.28;;;;;;;-145.45;100.00;62759.84;5309309;28;20071;-75
2022/04/12 06:29:07;;;;;;;7.40;5.07;;;;;;;-145.45;100.00;62759.84;5291201;28;20092;-75
2022/04/12 06:31:38;;;;;;;6.70;5.03;;;;;;;-145.45;100.00;62759.84;5304830;28;20049;-74
2022/04/12 06:34:09;;;;;;;9.02;5.60;;;;;;;-145.45;100.00;62759.84;5309582;28;38670;-75
2022/04/12 06:36:41;;;;;;;8.45;5.68;;;;;;;-145.45;100.00;62759.84;5290384;28;20031;-76
2022/04/12 06:39:12;;;;;;;11.13;6.28;;;;;;;-145.45;100.00;62759.84;5278102;28;20029;-76
2022/04/12 06:41:43;;;;;;;11.23;5.55;;;;;;;-145.45;100.00;62759.84;5267857;28;20025;-75
2022/04/12 06:44:15;;;;;;;10.25;5.45;;;;;;;-145.45;100.00;62759.84;5287700;28;41596;-76
2022/04/12 06:46:46;;;;;;;8.35;5.18;;;;;;;-145.45;100.00;62759.84;5298810;28;20048;-76
2022/04/12 06:49:17;;;;;;;8.57;5.43;;;;;;;-145.45;100.00;62759.84;5286554;28;20020;-76
2022/04/12 06:51:49;;;;;;;10.75;5.30;;;;;;;-145.45;100.00;62759.84;5269735;28;20639;-76
2022/04/12 06:54:20;;;;;;;9.88;5.18;;;;;;;-145.45;100.00;62759.84;5284884;28;42235;-76
2022/04/12 06:56:51;;;;;;;8.63;5.15;;;;;;;-145.45;100.00;62759.84;5268509;28;20021;-76
2022/04/12 06:59:24;;;;;;;8.23;4.93;;;;;;;-145.45;100.00;62759.84;5286516;28;20020;-76
2022/04/12 07:01:55;;;;;;;9.73;5.43;;;;;;;-145.45;100.00;62759.84;5275175;28;20032;-76
2022/04/12 07:04:28;;;;;;;7.75;4.82;;;;;;;-145.45;100.00;62759.84;5303417;28;20032;-76
2022/04/12 07:06:59;;;;;;;11.27;4.88;;;;;;;-145.45;100.00;62759.84;5309570;28;20020;-77
2022/04/12 07:09:31;;;;;;;8.18;4.80;;;;;;;-145.45;100.00;62759.84;5323362;28;20101;-77
2022/04/12 07:12:02;;;;;;;5.95;4.57;;;;;;;-145.45;100.00;62759.84;5283555;28;20018;-76
2022/04/12 07:14:34;;;;;;;7.65;4.80;;;;;;;-145.45;100.00;62759.84;5285893;28;20068;-76
2022/04/12 07:17:05;;;;;;;10.95;4.55;;;;;;;-145.45;100.00;62759.84;5266227;28;20025;-76
2022/04/12 07:19:37;;;;;;;6.18;4.50;;;;;;;-145.45;100.00;62759.84;5287640;28;20107;-75
2022/04/12 07:22:09;;;;;;;7.82;5.13;;;;;;;-145.45;100.00;62759.84;5293040;28;20036;-75
2022/04/12 07:24:40;;;;;;;8.77;4.35;;;;;;;-145.45;100.00;62759.84;5304030;28;20028;-75
2022/04/12 07:27:11;;;;;;;5.75;4.35;;;;;;;-145.45;100.00;62759.84;5303891;28;20043;-75
2022/04/12 07:29:43;;;;;;;7.55;4.20;;;;;;;-145.45;100.00;62759.84;5303948;28;20017;-76
2022/04/12 07:32:14;;;;;;;5.70;4.03;;;;;;;-145.45;100.00;62759.84;5303108;28;20024;-75
2022/04/12 07:34:46;;;;;;;6.57;3.92;;;;;;;-145.45;100.00;62759.84;5297457;28;20051;-75
2022/04/12 07:37:17;;;;;;;5.45;3.78;;;;;;;-145.45;100.00;62759.84;5306812;28;20051;-76
2022/04/12 07:39:48;;;;;;;6.72;3.92;;;;;;;-145.45;100.00;62759.84;5317893;28;20433;-76
2022/04/12 07:42:20;;;;;;;5.95;3.95;;;;;;;-145.45;100.00;62759.84;5282502;28;20155;-76
2022/04/12 07:44:52;;;;;;;5.97;3.63;;;;;;;-145.45;100.00;62759.84;5281812;28;20035;-76
2022/04/12 07:47:24;;;;;;;7.22;4.53;;;;;;;-145.45;100.00;62759.84;5288920;28;20024;-75
2022/04/12 07:49:55;;;;;;;4.90;3.50;;;;;;;-145.45;100.00;62759.84;5324753;28;20380;-76
2022/04/12 07:52:26;;;;;;;5.07;4.10;;;;;;;-145.45;100.00;62759.84;5324534;28;20034;-76
2022/04/12 07:54:57;;;;;;;6.68;3.53;;;;;;;-145.45;100.00;62759.84;5307466;28;20020;-76
2022/04/12 07:57:29;;;;;;;4.13;3.38;;;;;;;-145.45;100.00;62759.84;5303195;28;20020;-76
2022/04/12 08:00:00;;;;;;;5.30;3.33;;;;;;;-145.45;100.00;62759.84;5302883;28;20385;-76
2022/04/12 08:02:31;;;;;;;7.97;3.40;;;;;;;-145.45;100.00;62759.84;5309736;28;20025;-76
2022/04/12 08:05:03;;;;;;;7.73;3.97;;;;;;;-145.45;100.00;62759.84;5303197;28;20028;-76
2022/04/12 08:07:35;;;;;;;6.30;3.40;;;;;;;-145.45;100.00;62759.84;5289466;28;20840;-76
2022/04/12 08:10:07;;;;;;;5.95;3.28;;;;;;;-145.45;100.00;62759.84;5287866;28;20085;-77
2022/04/12 08:12:38;;;;;;;6.05;3.38;;;;;;;-145.45;100.00;62759.84;5299968;28;20041;-76
2022/04/12 08:15:11;;;;;;;6.47;3.70;;;;;;;-145.45;100.00;62759.84;5302291;28;20604;-76
2022/04/12 08:17:42;;;;;;;4.07;3.28;;;;;;;-145.45;100.00;62759.84;5301642;28;20036;-76
2022/04/12 08:20:13;;;;;;;5.32;3.47;;;;;;;-145.45;100.00;62759.84;5315709;28;20047;-76
2022/04/12 08:22:45;;;;;;;7.22;3.15;;;;;;;-145.45;100.00;62759.84;5303439;28;20043;-76
2022/04/12 08:25:16;;;;;;;5.68;3.38;;;;;;;-145.45;100.00;62759.84;5284332;28;20103;-76
2022/04/12 08:27:48;;;;;;;4.95;3.33;;;;;;;-145.45;100.00;62759.84;5302926;28;20017;-76
2022/04/12 08:30:20;;;;;;;6.32;3.10;;;;;;;-145.45;100.00;62759.84;5302756;28;20025;-76
2022/04/12 08:32:51;;;;;;;3.80;3.00;;;;;;;-145.45;100.00;62759.84;5294616;28;20107;-76
2022/04/12 08:35:22;;;;;;;5.75;3.33;;;;;;;-145.45;100.00;62759.84;5263722;28;20037;-76
2022/04/12 08:37:54;;;;;;;10.17;3.40;;;;;;;-145.45;100.00;62759.84;5282195;28;20036;-77
2022/04/12 08:40:25;;;;;;;5.97;2.53;;;;;;;-145.45;100.00;62759.84;5282539;28;20260;-77
2022/04/12 08:42:58;;;;;;;4.97;2.55;;;;;;;-145.45;100.00;62759.84;5302429;28;20036;-77
2022/04/12 08:45:30;;;;;;;5.00;2.35;;;;;;;-145.45;100.00;62759.84;5279526;28;20032;-77
2022/04/12 08:48:02;;;;;;;4.72;2.20;;;;;;;-145.45;100.00;62759.84;5297479;28;20028;-77
2022/04/12 08:50:34;;;;;;;4.97;2.40;;;;;;;-145.45;100.00;62759.84;5302747;28;20473;-76
2022/04/12 08:53:07;;;;;;;4.47;1.90;;;;;;;-145.45;100.00;62759.84;5299405;28;20029;-76
2022/04/12 08:55:39;;;;;;;3.45;1.95;;;;;;;-145.45;100.00;62759.84;5278134;28;20064;-78
2022/04/12 08:58:10;;;;;;;7.07;2.05;;;;;;;-145.45;100.00;62759.84;5297338;28;20201;-79
2022/04/12 09:00:42;;;;;;;4.60;2.00;;;;;;;-145.45;100.00;62759.84;5300482;28;20036;-76
2022/04/12 09:03:14;;;;;;;6.70;2.22;;;;;;;-145.45;100.00;62759.84;5297004;28;20354;-76
2022/04/12 09:05:46;;;;;;;5.38;1.98;;;;;;;-145.45;100.00;62759.84;5278474;28;20028;-76
2022/04/12 09:08:23;;;;;;;4.53;2.00;;;;;;;-145.45;100.00;62759.84;5295886;28;20028;-76
2022/04/12 09:10:57;;;;;;;7.35;2.40;;;;;;;-145.45;100.00;62759.84;5295540;28;20401;-76
2022/04/12 09:13:29;;;;;;;5.25;2.30;;;;;;;-145.45;100.00;62759.84;5295892;28;20075;-77
2022/04/12 09:16:00;;;;;;;3.80;1.85;;;;;;;-145.45;100.00;62759.84;5294658;28;20455;-76
2022/04/12 09:18:41;;;;;;;6.63;2.47;;;;;;;-145.45;100.00;62759.84;5293366;28;20394;-76
2022/04/12 09:21:14;;;;;;;5.18;2.20;;;;;;;-145.45;100.00;62759.84;5284593;28;20040;-76
2022/04/12 09:23:49;;;;;;;6.43;2.22;;;;;;;-145.45;100.00;62759.84;5296846;28;20197;-76
2022/04/12 09:26:28;;;;;;;5.80;2.37;;;;;;;-145.45;100.00;62759.84;5293852;28;20039;-77
2022/04/12 09:29:00;;;;;;;5.03;2.20;;;;;;;-145.45;100.00;62759.84;5297555;28;20391;-76
2022/04/12 09:31:33;;;;;;;7.47;2.80;;;;;;;-145.45;100.00;62759.84;5297962;28;20029;-76
2022/04/12 09:34:05;;;;;;;4.38;2.38;;;;;;;-145.45;100.00;62759.84;5298220;28;20039;-76
2022/04/12 09:36:36;;;;;;;5.65;2.17;;;;;;;-145.45;100.00;62759.84;5299186;28;20029;-76
2022/04/12 09:39:08;;;;;;;4.28;1.95;;;;;;;-145.45;100.00;62759.84;5298679;28;20035;-75
2022/04/12 09:41:39;;;;;;;5.28;2.28;;;;;;;-145.45;100.00;62759.84;5280638;28;20067;-78
2022/04/12 09:44:16;;;;;;;5.30;2.10;;;;;;;-145.45;100.00;62759.84;5302219;28;20029;-77
2022/04/12 09:46:49;;;;;;;5.53;2.13;;;;;;;-145.45;100.00;62759.84;5313329;28;20385;-78
2022/04/12 09:49:20;;;;;;;4.68;2.15;;;;;;;-145.45;100.00;62759.84;5290800;28;20452;-78
2022/04/12 09:51:52;;;;;;;9.32;2.17;;;;;;;-145.45;100.00;62759.84;5303005;28;20057;-78
2022/04/12 09:54:26;;;;;;;3.63;2.00;;;;;;;-145.45;100.00;62759.84;5299376;28;20043;-77
2022/04/12 09:56:58;;;;;;;6.93;2.08;;;;;;;-145.45;100.00;62759.84;5300449;28;20024;-78
2022/04/12 09:59:32;;;;;;;4.63;2.10;;;;;;;-145.45;100.00;62759.84;5282581;28;20090;-77
2022/04/12 10:02:04;;;;;;;4.35;2.20;;;;;;;-145.45;100.00;62759.84;5301843;28;20021;-77
2022/04/12 10:04:36;;;;;;;5.05;2.00;;;;;;;-145.45;100.00;62759.84;5280017;28;20047;-77
2022/04/12 10:07:10;;;;;;;4.05;2.13;;;;;;;-145.45;100.00;62759.84;5297633;28;20393;-77
2022/04/12 10:09:43;;;;;;;6.28;2.22;;;;;;;-145.45;100.00;62759.84;5296067;28;20086;-77
2022/04/12 10:12:15;;;;;;;6.10;1.80;;;;;;;-145.45;100.00;62759.84;5297404;28;20217;-77
2022/04/12 10:14:46;;;;;;;4.13;2.08;;;;;;;-145.45;100.00;62759.84;5296461;28;20059;-77
2022/04/12 10:17:18;;;;;;;5.45;2.30;;;;;;;-145.45;100.00;62759.84;5280359;28;20029;-76
2022/04/12 10:19:50;;;;;;;4.22;2.20;;;;;;;-145.45;100.00;62759.84;5296549;28;20032;-76
2022/04/12 10:22:23;;;;;;;5.88;2.40;;;;;;;-145.45;100.00;62759.84;5300321;28;20070;-76
2022/04/12 10:24:55;;;;;;;4.45;2.17;;;;;;;-145.45;100.00;62759.84;5285312;28;20029;-76
2022/04/12 10:27:28;;;;;;;5.43;2.10;;;;;;;-145.45;100.00;62759.84;5291759;28;20037;-76
2022/04/12 10:30:15;;;;;;;5.10;2.03;;;;;;;-145.45;100.00;62759.84;5279191;28;20058;-76
2022/04/12 10:33:17;;;;;;;5.20;2.30;;;;;;;-145.45;100.00;62759.84;5297304;28;20471;-76
2022/04/12 10:35:48;;;;;;;4.13;2.30;;;;;;;-145.45;100.00;62759.84;5294629;28;20478;-76
2022/04/12 10:38:22;;;;;;;5.75;2.15;;;;;;;-145.45;100.00;62759.84;5298364;28;20039;-76
2022/04/12 10:40:55;;;;;;;3.50;2.00;;;;;;;-145.45;100.00;62759.84;5297736;28;20055;-76
2022/04/12 10:43:33;;;;;;;7.60;2.40;;;;;;;-145.45;100.00;62759.84;5279815;28;20043;-76
2022/04/12 10:46:08;;;;;;;5.63;2.50;;;;;;;-145.45;100.00;62759.84;5295982;28;20024;-76
2022/04/12 10:48:39;;;;;;;4.22;2.38;;;;;;;-145.45;100.00;62759.84;5279874;28;20040;-76
2022/04/12 10:51:12;;;;;;;7.55;2.40;;;;;;;-145.45;100.00;62759.84;5297694;28;20457;-76
2022/04/12 10:53:53;;;;;;;5.85;2.55;;;;;;;-145.45;100.00;62759.84;5297946;28;20119;-76
2022/04/12 10:56:25;;;;;;;5.32;2.03;;;;;;;-145.45;100.00;62759.84;5296118;28;21154;-76
2022/04/12 10:58:57;;;;;;;6.03;2.33;;;;;;;-145.45;100.00;62759.84;5297124;28;20095;-76
2022/04/12 11:01:35;;;;;;;3.55;2.00;;;;;;;-145.45;100.00;62759.84;5300006;28;20388;-76
2022/04/12 11:04:06;;;;;;;4.97;2.20;;;;;;;-145.45;100.00;62759.84;5300303;28;20472;-76
2022/04/12 11:06:37;;;;;;;8.90;2.30;;;;;;;-145.45;100.00;62759.84;5287387;28;20028;-76
2022/04/12 11:09:11;;;;;;;5.25;2.53;;;;;;;-145.45;100.00;62759.84;5307913;28;20035;-76
2022/04/12 11:11:45;;;;;;;7.93;2.20;;;;;;;-145.45;100.00;62759.84;5307643;28;20060;-76
2022/04/12 11:14:43;;;;;;;4.03;1.95;;;;;;;-145.45;100.00;62759.84;5301736;28;20091;-76
2022/04/12 11:17:17;;;;;;;4.93;1.90;;;;;;;-145.45;100.00;62759.84;5293518;28;20409;-76
2022/04/12 11:19:51;;;;;;;5.43;2.30;;;;;;;-145.45;100.00;62759.84;5305813;28;20155;-76
2022/04/12 11:22:23;;;;;;;5.90;2.15;;;;;;;-145.45;100.00;62759.84;5305939;28;20025;-76
2022/04/12 11:25:14;;;;;;;6.47;2.30;;;;;;;-145.45;100.00;62759.84;5285149;28;20032;-76
2022/04/12 11:27:47;;;;;;;5.57;2.30;;;;;;;-145.45;100.00;62759.84;5313366;28;20342;-76
2022/04/12 11:30:18;;;;;;;7.13;2.42;;;;;;;-145.45;100.00;62759.84;5317354;28;20043;-76
2022/04/12 11:32:52;;;;;;;5.43;2.22;;;;;;;-145.45;100.00;62759.84;5302296;28;20040;-76